sensor_id;sensor_type;location;lat;lon;timestamp;P1;durP1;ratioP1;P2;durP2;ratioP2
11537;SDS011;50159;49.426;11.182;2023-04-06T00:00:53;3.50;;;3.27;;
11537;SDS011;50159;49.426;11.182;2023-04-06T00:03:20;3.40;;;3.20;;
11537;SDS011;50159;49.426;11.182;2023-04-06T00:05:47;3.27;;;3.17;;
11537;SDS011;50159;49.426;11.182;2023-04-06T00:08:15;3.60;;;3.40;;
11537;SDS011;50159;49.426;11.182;2023-04-06T00:10:41;3.50;;;3.30;;
11537;SDS011;50159;49.426;11.182;2023-04-06T00:13:08;3.30;;;3.20;;
11537;SDS011;50159;49.426;11.182;2023-04-06T00:15:36;3.40;;;3.10;;
11537;SDS011;50159;49.426;11.182;2023-04-06T00:18:02;3.87;;;3.67;;
11537;SDS011;50159;49.426;11.182;2023-04-06T00:20:29;2.90;;;2.80;;
11537;SDS011;50159;49.426;11.182;2023-04-06T00:22:56;3.60;;;3.40;;
11537;SDS011;50159;49.426;11.182;2023-04-06T00:25:23;3.20;;;3.10;;
11537;SDS011;50159;49.426;11.182;2023-04-06T00:27:51;3.27;;;3.07;;
11537;SDS011;50159;49.426;11.182;2023-04-06T00:30:18;3.67;;;3.47;;
11537;SDS011;50159;49.426;11.182;2023-04-06T00:32:45;3.43;;;3.23;;
11537;SDS011;50159;49.426;11.182;2023-04-06T00:35:12;3.63;;;3.30;;
11537;SDS011;50159;49.426;11.182;2023-04-06T00:37:41;5.53;;;3.67;;
11537;SDS011;50159;49.426;11.182;2023-04-06T00:40:08;3.53;;;3.30;;
11537;SDS011;50159;49.426;11.182;2023-04-06T00:42:35;6.67;;;3.40;;
11537;SDS011;50159;49.426;11.182;2023-04-06T00:45:03;3.73;;;3.53;;
11537;SDS011;50159;49.426;11.182;2023-04-06T00:47:30;4.00;;;3.70;;
11537;SDS011;50159;49.426;11.182;2023-04-06T00:49:57;3.37;;;3.27;;
11537;SDS011;50159;49.426;11.182;2023-04-06T00:52:24;3.40;;;3.20;;
11537;SDS011;50159;49.426;11.182;2023-04-06T00:54:51;3.20;;;3.10;;
11537;SDS011;50159;49.426;11.182;2023-04-06T00:57:18;3.67;;;3.50;;
11537;SDS011;50159;49.426;11.182;2023-04-06T00:59:45;3.77;;;3.57;;
11537;SDS011;50159;49.426;11.182;2023-04-06T01:02:12;3.77;;;3.63;;
11537;SDS011;50159;49.426;11.182;2023-04-06T01:04:39;3.63;;;3.43;;
11537;SDS011;50159;49.426;11.182;2023-04-06T01:07:06;3.67;;;3.47;;
11537;SDS011;50159;49.426;11.182;2023-04-06T01:09:33;3.17;;;2.97;;
11537;SDS011;50159;49.426;11.182;2023-04-06T01:12:00;3.80;;;3.10;;
11537;SDS011;50159;49.426;11.182;2023-04-06T01:14:27;7.77;;;3.60;;
11537;SDS011;50159;49.426;11.182;2023-04-06T01:16:57;3.40;;;3.27;;
11537;SDS011;50159;49.426;11.182;2023-04-06T01:19:27;3.87;;;3.63;;
11537;SDS011;50159;49.426;11.182;2023-04-06T01:21:54;4.47;;;3.77;;
11537;SDS011;50159;49.426;11.182;2023-04-06T01:24:21;4.07;;;3.77;;
11537;SDS011;50159;49.426;11.182;2023-04-06T01:26:48;3.57;;;3.40;;
11537;SDS011;50159;49.426;11.182;2023-04-06T01:29:15;3.60;;;3.50;;
11537;SDS011;50159;49.426;11.182;2023-04-06T01:31:42;4.40;;;4.10;;
11537;SDS011;50159;49.426;11.182;2023-04-06T01:34:09;3.63;;;3.40;;
11537;SDS011;50159;49.426;11.182;2023-04-06T01:36:36;3.70;;;3.50;;
11537;SDS011;50159;49.426;11.182;2023-04-06T01:39:03;3.80;;;3.60;;
11537;SDS011;50159;49.426;11.182;2023-04-06T01:41:30;4.33;;;4.00;;
11537;SDS011;50159;49.426;11.182;2023-04-06T01:43:57;4.00;;;3.70;;
11537;SDS011;50159;49.426;11.182;2023-04-06T01:46:24;4.40;;;3.87;;
11537;SDS011;50159;49.426;11.182;2023-04-06T01:48:51;3.43;;;3.23;;
11537;SDS011;50159;49.426;11.182;2023-04-06T01:51:18;3.60;;;3.40;;
11537;SDS011;50159;49.426;11.182;2023-04-06T01:53:44;4.40;;;4.00;;
11537;SDS011;50159;49.426;11.182;2023-04-06T01:56:11;3.63;;;3.43;;
11537;SDS011;50159;49.426;11.182;2023-04-06T01:58:38;4.10;;;3.60;;
11537;SDS011;50159;49.426;11.182;2023-04-06T02:01:05;4.30;;;4.00;;
11537;SDS011;50159;49.426;11.182;2023-04-06T02:03:32;5.73;;;4.10;;
11537;SDS011;50159;49.426;11.182;2023-04-06T02:05:59;3.53;;;3.43;;
11537;SDS011;50159;49.426;11.182;2023-04-06T02:08:26;4.30;;;3.90;;
11537;SDS011;50159;49.426;11.182;2023-04-06T02:10:53;4.13;;;3.70;;
11537;SDS011;50159;49.426;11.182;2023-04-06T02:13:19;3.90;;;3.70;;
11537;SDS011;50159;49.426;11.182;2023-04-06T02:15:46;4.10;;;3.70;;
11537;SDS011;50159;49.426;11.182;2023-04-06T02:18:13;4.00;;;3.60;;
11537;SDS011;50159;49.426;11.182;2023-04-06T02:20:40;4.23;;;3.90;;
11537;SDS011;50159;49.426;11.182;2023-04-06T02:23:06;3.50;;;3.30;;
11537;SDS011;50159;49.426;11.182;2023-04-06T02:25:33;3.23;;;3.10;;
11537;SDS011;50159;49.426;11.182;2023-04-06T02:28:00;3.80;;;3.50;;
11537;SDS011;50159;49.426;11.182;2023-04-06T02:30:27;3.90;;;3.60;;
11537;SDS011;50159;49.426;11.182;2023-04-06T02:32:55;4.23;;;3.60;;
11537;SDS011;50159;49.426;11.182;2023-04-06T02:35:22;3.97;;;3.73;;
11537;SDS011;50159;49.426;11.182;2023-04-06T02:37:54;4.13;;;3.83;;
11537;SDS011;50159;49.426;11.182;2023-04-06T02:40:21;3.67;;;3.47;;
11537;SDS011;50159;49.426;11.182;2023-04-06T02:42:48;4.73;;;3.90;;
11537;SDS011;50159;49.426;11.182;2023-04-06T02:45:15;3.80;;;3.60;;
11537;SDS011;50159;49.426;11.182;2023-04-06T02:47:42;3.90;;;3.70;;
11537;SDS011;50159;49.426;11.182;2023-04-06T02:50:09;3.83;;;3.63;;
11537;SDS011;50159;49.426;11.182;2023-04-06T02:52:36;3.83;;;3.53;;
11537;SDS011;50159;49.426;11.182;2023-04-06T02:55:03;4.07;;;3.80;;
11537;SDS011;50159;49.426;11.182;2023-04-06T02:57:30;4.07;;;3.77;;
11537;SDS011;50159;49.426;11.182;2023-04-06T02:59:57;4.50;;;4.20;;
11537;SDS011;50159;49.426;11.182;2023-04-06T03:02:24;3.70;;;3.50;;
11537;SDS011;50159;49.426;11.182;2023-04-06T03:04:51;3.70;;;3.50;;
11537;SDS011;50159;49.426;11.182;2023-04-06T03:07:17;4.50;;;4.10;;
11537;SDS011;50159;49.426;11.182;2023-04-06T03:09:44;4.57;;;4.10;;
11537;SDS011;50159;49.426;11.182;2023-04-06T03:12:11;4.60;;;4.30;;
11537;SDS011;50159;49.426;11.182;2023-04-06T03:14:38;4.30;;;4.10;;
11537;SDS011;50159;49.426;11.182;2023-04-06T03:17:04;4.10;;;3.87;;
11537;SDS011;50159;49.426;11.182;2023-04-06T03:19:31;4.30;;;4.00;;
11537;SDS011;50159;49.426;11.182;2023-04-06T03:21:58;4.60;;;4.10;;
11537;SDS011;50159;49.426;11.182;2023-04-06T03:24:25;4.20;;;3.90;;
11537;SDS011;50159;49.426;11.182;2023-04-06T03:26:52;4.07;;;3.90;;
11537;SDS011;50159;49.426;11.182;2023-04-06T03:29:18;4.07;;;3.77;;
11537;SDS011;50159;49.426;11.182;2023-04-06T03:31:45;4.00;;;3.80;;
11537;SDS011;50159;49.426;11.182;2023-04-06T03:34:12;4.50;;;4.20;;
11537;SDS011;50159;49.426;11.182;2023-04-06T03:36:39;4.23;;;3.97;;
11537;SDS011;50159;49.426;11.182;2023-04-06T03:39:06;4.50;;;4.20;;
11537;SDS011;50159;49.426;11.182;2023-04-06T03:41:33;4.57;;;4.20;;
11537;SDS011;50159;49.426;11.182;2023-04-06T03:44:00;6.17;;;3.83;;
11537;SDS011;50159;49.426;11.182;2023-04-06T03:46:27;3.77;;;3.57;;
11537;SDS011;50159;49.426;11.182;2023-04-06T03:48:54;4.20;;;3.87;;
11537;SDS011;50159;49.426;11.182;2023-04-06T03:51:21;4.77;;;4.37;;
11537;SDS011;50159;49.426;11.182;2023-04-06T03:53:47;4.07;;;3.77;;
11537;SDS011;50159;49.426;11.182;2023-04-06T03:56:14;4.23;;;3.97;;
11537;SDS011;50159;49.426;11.182;2023-04-06T03:58:41;4.30;;;3.97;;
11537;SDS011;50159;49.426;11.182;2023-04-06T04:01:10;4.30;;;4.10;;
11537;SDS011;50159;49.426;11.182;2023-04-06T04:03:37;4.47;;;4.10;;
11537;SDS011;50159;49.426;11.182;2023-04-06T04:06:04;4.77;;;4.30;;
11537;SDS011;50159;49.426;11.182;2023-04-06T04:08:31;4.77;;;4.40;;
11537;SDS011;50159;49.426;11.182;2023-04-06T04:10:58;4.20;;;3.83;;
11537;SDS011;50159;49.426;11.182;2023-04-06T04:13:25;4.70;;;4.40;;
11537;SDS011;50159;49.426;11.182;2023-04-06T04:15:52;4.43;;;4.13;;
11537;SDS011;50159;49.426;11.182;2023-04-06T04:18:19;4.23;;;4.03;;
11537;SDS011;50159;49.426;11.182;2023-04-06T04:20:46;4.63;;;4.30;;
11537;SDS011;50159;49.426;11.182;2023-04-06T04:23:13;4.20;;;3.90;;
11537;SDS011;50159;49.426;11.182;2023-04-06T04:25:40;5.03;;;4.63;;
11537;SDS011;50159;49.426;11.182;2023-04-06T04:28:07;4.40;;;4.20;;
11537;SDS011;50159;49.426;11.182;2023-04-06T04:30:34;4.43;;;4.10;;
11537;SDS011;50159;49.426;11.182;2023-04-06T04:33:00;4.30;;;4.03;;
11537;SDS011;50159;49.426;11.182;2023-04-06T04:35:27;4.93;;;4.53;;
11537;SDS011;50159;49.426;11.182;2023-04-06T04:37:54;4.60;;;4.30;;
11537;SDS011;50159;49.426;11.182;2023-04-06T04:40:22;4.40;;;4.10;;
11537;SDS011;50159;49.426;11.182;2023-04-06T04:42:49;5.13;;;4.67;;
11537;SDS011;50159;49.426;11.182;2023-04-06T04:45:17;5.23;;;4.73;;
11537;SDS011;50159;49.426;11.182;2023-04-06T04:47:44;4.30;;;4.00;;
11537;SDS011;50159;49.426;11.182;2023-04-06T04:50:10;6.53;;;5.40;;
11537;SDS011;50159;49.426;11.182;2023-04-06T04:52:37;4.60;;;4.40;;
11537;SDS011;50159;49.426;11.182;2023-04-06T04:55:04;4.73;;;4.43;;
11537;SDS011;50159;49.426;11.182;2023-04-06T04:57:31;4.03;;;3.83;;
11537;SDS011;50159;49.426;11.182;2023-04-06T04:59:58;4.60;;;4.17;;
11537;SDS011;50159;49.426;11.182;2023-04-06T05:02:25;4.90;;;4.50;;
11537;SDS011;50159;49.426;11.182;2023-04-06T05:04:52;4.23;;;3.93;;
11537;SDS011;50159;49.426;11.182;2023-04-06T05:07:19;5.67;;;4.33;;
11537;SDS011;50159;49.426;11.182;2023-04-06T05:09:46;6.13;;;4.17;;
11537;SDS011;50159;49.426;11.182;2023-04-06T05:12:14;4.90;;;4.60;;
11537;SDS011;50159;49.426;11.182;2023-04-06T05:14:41;5.30;;;4.80;;
11537;SDS011;50159;49.426;11.182;2023-04-06T05:17:08;7.93;;;5.03;;
11537;SDS011;50159;49.426;11.182;2023-04-06T05:19:35;5.50;;;4.33;;
11537;SDS011;50159;49.426;11.182;2023-04-06T05:22:02;4.77;;;4.47;;
11537;SDS011;50159;49.426;11.182;2023-04-06T05:24:29;5.10;;;4.60;;
11537;SDS011;50159;49.426;11.182;2023-04-06T05:26:56;5.53;;;5.00;;
11537;SDS011;50159;49.426;11.182;2023-04-06T05:29:23;5.07;;;4.47;;
11537;SDS011;50159;49.426;11.182;2023-04-06T05:31:50;5.07;;;4.70;;
11537;SDS011;50159;49.426;11.182;2023-04-06T05:34:17;4.33;;;4.03;;
11537;SDS011;50159;49.426;11.182;2023-04-06T05:36:44;4.90;;;4.50;;
11537;SDS011;50159;49.426;11.182;2023-04-06T05:39:11;4.50;;;4.20;;
11537;SDS011;50159;49.426;11.182;2023-04-06T05:41:38;5.37;;;4.40;;
11537;SDS011;50159;49.426;11.182;2023-04-06T05:44:05;6.33;;;4.40;;
11537;SDS011;50159;49.426;11.182;2023-04-06T05:46:32;4.33;;;4.03;;
11537;SDS011;50159;49.426;11.182;2023-04-06T05:48:59;4.37;;;4.07;;
11537;SDS011;50159;49.426;11.182;2023-04-06T05:51:26;4.87;;;4.40;;
11537;SDS011;50159;49.426;11.182;2023-04-06T05:53:53;4.67;;;4.27;;
11537;SDS011;50159;49.426;11.182;2023-04-06T05:56:20;5.07;;;4.73;;
11537;SDS011;50159;49.426;11.182;2023-04-06T05:58:47;4.70;;;4.33;;
11537;SDS011;50159;49.426;11.182;2023-04-06T06:01:14;5.13;;;4.83;;
11537;SDS011;50159;49.426;11.182;2023-04-06T06:03:41;4.70;;;4.30;;
11537;SDS011;50159;49.426;11.182;2023-04-06T06:06:08;4.93;;;4.50;;
11537;SDS011;50159;49.426;11.182;2023-04-06T06:08:35;6.63;;;4.90;;
11537;SDS011;50159;49.426;11.182;2023-04-06T06:11:02;4.60;;;4.20;;
11537;SDS011;50159;49.426;11.182;2023-04-06T06:13:29;4.20;;;4.00;;
11537;SDS011;50159;49.426;11.182;2023-04-06T06:15:56;4.37;;;3.97;;
11537;SDS011;50159;49.426;11.182;2023-04-06T06:18:23;4.43;;;4.13;;
11537;SDS011;50159;49.426;11.182;2023-04-06T06:20:50;4.40;;;4.10;;
11537;SDS011;50159;49.426;11.182;2023-04-06T06:23:17;4.20;;;3.93;;
11537;SDS011;50159;49.426;11.182;2023-04-06T06:25:44;4.20;;;3.90;;
11537;SDS011;50159;49.426;11.182;2023-04-06T06:28:11;4.23;;;3.90;;
11537;SDS011;50159;49.426;11.182;2023-04-06T06:30:38;4.23;;;4.03;;
11537;SDS011;50159;49.426;11.182;2023-04-06T06:33:04;3.67;;;3.40;;
11537;SDS011;50159;49.426;11.182;2023-04-06T06:35:32;4.33;;;4.10;;
11537;SDS011;50159;49.426;11.182;2023-04-06T06:38:00;4.17;;;3.77;;
11537;SDS011;50159;49.426;11.182;2023-04-06T06:40:26;3.70;;;3.50;;
11537;SDS011;50159;49.426;11.182;2023-04-06T06:42:54;3.63;;;3.43;;
11537;SDS011;50159;49.426;11.182;2023-04-06T06:45:20;3.20;;;3.10;;
11537;SDS011;50159;49.426;11.182;2023-04-06T06:47:47;3.33;;;3.20;;
11537;SDS011;50159;49.426;11.182;2023-04-06T06:50:14;3.30;;;3.20;;
11537;SDS011;50159;49.426;11.182;2023-04-06T06:52:41;3.43;;;3.10;;
11537;SDS011;50159;49.426;11.182;2023-04-06T06:55:09;3.03;;;2.93;;
11537;SDS011;50159;49.426;11.182;2023-04-06T06:57:37;2.93;;;2.83;;
11537;SDS011;50159;49.426;11.182;2023-04-06T07:00:05;3.70;;;3.40;;
11537;SDS011;50159;49.426;11.182;2023-04-06T07:02:33;3.20;;;3.00;;
11537;SDS011;50159;49.426;11.182;2023-04-06T07:05:02;2.97;;;2.87;;
11537;SDS011;50159;49.426;11.182;2023-04-06T07:07:41;3.33;;;3.10;;
11537;SDS011;50159;49.426;11.182;2023-04-06T07:10:09;8.40;;;5.40;;
11537;SDS011;50159;49.426;11.182;2023-04-06T07:12:36;8.13;;;5.50;;
11537;SDS011;50159;49.426;11.182;2023-04-06T07:15:04;5.27;;;4.77;;
11537;SDS011;50159;49.426;11.182;2023-04-06T07:17:31;6.33;;;5.73;;
11537;SDS011;50159;49.426;11.182;2023-04-06T07:19:58;8.07;;;6.27;;
11537;SDS011;50159;49.426;11.182;2023-04-06T07:22:25;9.00;;;5.63;;
11537;SDS011;50159;49.426;11.182;2023-04-06T07:24:52;6.37;;;5.77;;
11537;SDS011;50159;49.426;11.182;2023-04-06T07:27:19;6.70;;;5.33;;
11537;SDS011;50159;49.426;11.182;2023-04-06T07:29:45;6.00;;;5.50;;
11537;SDS011;50159;49.426;11.182;2023-04-06T07:32:13;6.70;;;6.10;;
11537;SDS011;50159;49.426;11.182;2023-04-06T07:34:39;5.57;;;5.00;;
11537;SDS011;50159;49.426;11.182;2023-04-06T07:37:06;5.73;;;5.23;;
11537;SDS011;50159;49.426;11.182;2023-04-06T07:39:33;5.73;;;5.10;;
11537;SDS011;50159;49.426;11.182;2023-04-06T07:42:00;5.93;;;4.90;;
11537;SDS011;50159;49.426;11.182;2023-04-06T07:44:27;5.93;;;5.20;;
11537;SDS011;50159;49.426;11.182;2023-04-06T07:46:54;6.10;;;5.60;;
11537;SDS011;50159;49.426;11.182;2023-04-06T07:49:21;6.47;;;4.97;;
11537;SDS011;50159;49.426;11.182;2023-04-06T07:51:49;7.33;;;5.37;;
11537;SDS011;50159;49.426;11.182;2023-04-06T07:54:16;5.93;;;4.83;;
11537;SDS011;50159;49.426;11.182;2023-04-06T07:56:43;7.87;;;5.60;;
11537;SDS011;50159;49.426;11.182;2023-04-06T07:59:09;6.63;;;5.43;;
11537;SDS011;50159;49.426;11.182;2023-04-06T08:01:37;8.60;;;6.10;;
11537;SDS011;50159;49.426;11.182;2023-04-06T08:04:04;7.33;;;5.90;;
11537;SDS011;50159;49.426;11.182;2023-04-06T08:06:32;5.57;;;5.10;;
11537;SDS011;50159;49.426;11.182;2023-04-06T08:08:58;5.37;;;4.80;;
11537;SDS011;50159;49.426;11.182;2023-04-06T08:11:25;6.37;;;5.67;;
11537;SDS011;50159;49.426;11.182;2023-04-06T08:13:53;7.00;;;5.70;;
11537;SDS011;50159;49.426;11.182;2023-04-06T08:16:23;6.50;;;5.10;;
11537;SDS011;50159;49.426;11.182;2023-04-06T08:18:50;5.83;;;5.27;;
11537;SDS011;50159;49.426;11.182;2023-04-06T08:21:17;7.27;;;5.10;;
11537;SDS011;50159;49.426;11.182;2023-04-06T08:23:44;5.93;;;5.43;;
11537;SDS011;50159;49.426;11.182;2023-04-06T08:26:12;5.23;;;4.73;;
11537;SDS011;50159;49.426;11.182;2023-04-06T08:28:39;5.77;;;5.20;;
11537;SDS011;50159;49.426;11.182;2023-04-06T08:31:06;5.87;;;5.13;;
11537;SDS011;50159;49.426;11.182;2023-04-06T08:33:33;6.40;;;5.80;;
11537;SDS011;50159;49.426;11.182;2023-04-06T08:36:12;8.47;;;5.10;;
11537;SDS011;50159;49.426;11.182;2023-04-06T08:38:40;5.67;;;5.03;;
11537;SDS011;50159;49.426;11.182;2023-04-06T08:41:12;5.40;;;4.93;;
11537;SDS011;50159;49.426;11.182;2023-04-06T08:43:43;6.00;;;5.50;;
11537;SDS011;50159;49.426;11.182;2023-04-06T08:46:23;6.67;;;5.17;;
11537;SDS011;50159;49.426;11.182;2023-04-06T08:48:56;6.30;;;5.03;;
11537;SDS011;50159;49.426;11.182;2023-04-06T08:51:24;5.63;;;5.13;;
11537;SDS011;50159;49.426;11.182;2023-04-06T08:53:54;5.60;;;5.00;;
11537;SDS011;50159;49.426;11.182;2023-04-06T08:56:23;5.13;;;4.63;;
11537;SDS011;50159;49.426;11.182;2023-04-06T08:58:54;5.83;;;5.13;;
11537;SDS011;50159;49.426;11.182;2023-04-06T09:01:23;5.43;;;4.93;;
11537;SDS011;50159;49.426;11.182;2023-04-06T09:03:57;5.70;;;5.10;;
11537;SDS011;50159;49.426;11.182;2023-04-06T09:06:27;5.17;;;4.60;;
11537;SDS011;50159;49.426;11.182;2023-04-06T09:08:54;5.97;;;5.37;;
11537;SDS011;50159;49.426;11.182;2023-04-06T09:11:21;6.90;;;5.80;;
11537;SDS011;50159;49.426;11.182;2023-04-06T09:13:49;7.20;;;5.67;;
11537;SDS011;50159;49.426;11.182;2023-04-06T09:16:19;5.03;;;4.63;;
11537;SDS011;50159;49.426;11.182;2023-04-06T09:18:47;4.97;;;4.47;;
11537;SDS011;50159;49.426;11.182;2023-04-06T09:21:18;7.43;;;4.73;;
11537;SDS011;50159;49.426;11.182;2023-04-06T09:24:00;5.73;;;5.23;;
11537;SDS011;50159;49.426;11.182;2023-04-06T09:26:28;6.30;;;5.70;;
11537;SDS011;50159;49.426;11.182;2023-04-06T09:28:58;9.10;;;6.13;;
11537;SDS011;50159;49.426;11.182;2023-04-06T09:31:28;6.70;;;6.10;;
11537;SDS011;50159;49.426;11.182;2023-04-06T09:33:59;6.47;;;5.87;;
11537;SDS011;50159;49.426;11.182;2023-04-06T09:36:33;7.07;;;6.20;;
11537;SDS011;50159;49.426;11.182;2023-04-06T09:39:07;5.23;;;4.83;;
11537;SDS011;50159;49.426;11.182;2023-04-06T09:41:35;5.27;;;4.87;;
11537;SDS011;50159;49.426;11.182;2023-04-06T09:44:03;6.37;;;5.87;;
11537;SDS011;50159;49.426;11.182;2023-04-06T09:46:35;7.77;;;5.20;;
11537;SDS011;50159;49.426;11.182;2023-04-06T09:49:25;5.83;;;5.33;;
11537;SDS011;50159;49.426;11.182;2023-04-06T09:51:59;6.17;;;5.67;;
11537;SDS011;50159;49.426;11.182;2023-04-06T09:54:30;6.50;;;6.00;;
11537;SDS011;50159;49.426;11.182;2023-04-06T09:59:47;7.53;;;6.40;;
11537;SDS011;50159;49.426;11.182;2023-04-06T10:02:31;6.40;;;5.80;;
11537;SDS011;50159;49.426;11.182;2023-04-06T10:05:46;6.57;;;4.87;;
11537;SDS011;50159;49.426;11.182;2023-04-06T10:08:16;5.13;;;4.60;;
11537;SDS011;50159;49.426;11.182;2023-04-06T10:10:45;7.77;;;6.97;;
11537;SDS011;50159;49.426;11.182;2023-04-06T10:13:13;6.47;;;5.97;;
11537;SDS011;50159;49.426;11.182;2023-04-06T10:15:41;7.37;;;5.53;;
11537;SDS011;50159;49.426;11.182;2023-04-06T10:18:09;6.73;;;6.13;;
11537;SDS011;50159;49.426;11.182;2023-04-06T10:23:23;7.37;;;5.87;;
11537;SDS011;50159;49.426;11.182;2023-04-06T10:26:11;5.87;;;5.37;;
11537;SDS011;50159;49.426;11.182;2023-04-06T10:28:41;6.43;;;5.90;;
11537;SDS011;50159;49.426;11.182;2023-04-06T10:31:09;6.63;;;5.67;;
11537;SDS011;50159;49.426;11.182;2023-04-06T10:33:36;6.93;;;5.17;;
11537;SDS011;50159;49.426;11.182;2023-04-06T10:36:12;5.93;;;5.40;;
11537;SDS011;50159;49.426;11.182;2023-04-06T10:38:47;5.23;;;4.77;;
11537;SDS011;50159;49.426;11.182;2023-04-06T10:41:23;5.63;;;5.10;;
11537;SDS011;50159;49.426;11.182;2023-04-06T10:43:56;4.83;;;4.30;;
11537;SDS011;50159;49.426;11.182;2023-04-06T10:46:27;5.93;;;5.23;;
11537;SDS011;50159;49.426;11.182;2023-04-06T10:49:11;6.37;;;5.13;;
11537;SDS011;50159;49.426;11.182;2023-04-06T10:51:39;4.50;;;4.10;;
11537;SDS011;50159;49.426;11.182;2023-04-06T10:54:06;4.87;;;4.47;;
11537;SDS011;50159;49.426;11.182;2023-04-06T10:56:36;6.30;;;4.23;;
11537;SDS011;50159;49.426;11.182;2023-04-06T10:59:05;4.13;;;3.90;;
11537;SDS011;50159;49.426;11.182;2023-04-06T11:01:33;5.03;;;4.60;;
11537;SDS011;50159;49.426;11.182;2023-04-06T11:04:00;5.87;;;4.77;;
11537;SDS011;50159;49.426;11.182;2023-04-06T11:06:28;5.10;;;4.60;;
11537;SDS011;50159;49.426;11.182;2023-04-06T11:08:57;4.87;;;4.10;;
11537;SDS011;50159;49.426;11.182;2023-04-06T11:11:25;5.27;;;4.67;;
11537;SDS011;50159;49.426;11.182;2023-04-06T11:13:54;5.60;;;5.10;;
11537;SDS011;50159;49.426;11.182;2023-04-06T11:16:23;5.17;;;4.67;;
11537;SDS011;50159;49.426;11.182;2023-04-06T11:19:02;6.40;;;4.50;;
11537;SDS011;50159;49.426;11.182;2023-04-06T11:21:45;6.00;;;4.93;;
11537;SDS011;50159;49.426;11.182;2023-04-06T11:24:14;4.37;;;4.07;;
11537;SDS011;50159;49.426;11.182;2023-04-06T11:26:47;4.63;;;4.27;;
11537;SDS011;50159;49.426;11.182;2023-04-06T11:29:21;5.47;;;4.67;;
11537;SDS011;50159;49.426;11.182;2023-04-06T11:31:58;5.17;;;4.67;;
11537;SDS011;50159;49.426;11.182;2023-04-06T11:34:30;4.40;;;4.00;;
11537;SDS011;50159;49.426;11.182;2023-04-06T11:37:08;4.77;;;4.37;;
11537;SDS011;50159;49.426;11.182;2023-04-06T11:39:38;3.70;;;3.50;;
11537;SDS011;50159;49.426;11.182;2023-04-06T11:42:23;4.43;;;4.00;;
11537;SDS011;50159;49.426;11.182;2023-04-06T11:44:56;3.90;;;3.67;;
11537;SDS011;50159;49.426;11.182;2023-04-06T11:47:31;4.60;;;4.30;;
11537;SDS011;50159;49.426;11.182;2023-04-06T11:50:08;3.83;;;3.63;;
11537;SDS011;50159;49.426;11.182;2023-04-06T11:52:41;3.63;;;3.23;;
11537;SDS011;50159;49.426;11.182;2023-04-06T11:55:15;3.63;;;3.40;;
11537;SDS011;50159;49.426;11.182;2023-04-06T11:57:44;4.67;;;4.27;;
11537;SDS011;50159;49.426;11.182;2023-04-06T12:00:11;7.70;;;5.03;;
11537;SDS011;50159;49.426;11.182;2023-04-06T12:02:39;4.93;;;4.57;;
11537;SDS011;50159;49.426;11.182;2023-04-06T12:05:06;4.13;;;3.80;;
11537;SDS011;50159;49.426;11.182;2023-04-06T12:07:36;5.07;;;4.73;;
11537;SDS011;50159;49.426;11.182;2023-04-06T12:10:03;4.80;;;4.40;;
11537;SDS011;50159;49.426;11.182;2023-04-06T12:12:31;4.10;;;3.80;;
11537;SDS011;50159;49.426;11.182;2023-04-06T12:14:58;4.33;;;4.03;;
11537;SDS011;50159;49.426;11.182;2023-04-06T12:17:25;4.40;;;4.07;;
11537;SDS011;50159;49.426;11.182;2023-04-06T12:19:52;3.63;;;3.47;;
11537;SDS011;50159;49.426;11.182;2023-04-06T12:22:19;3.90;;;3.57;;
11537;SDS011;50159;49.426;11.182;2023-04-06T12:24:46;3.33;;;3.13;;
11537;SDS011;50159;49.426;11.182;2023-04-06T12:27:13;7.57;;;5.07;;
11537;SDS011;50159;49.426;11.182;2023-04-06T12:29:40;3.80;;;3.60;;
11537;SDS011;50159;49.426;11.182;2023-04-06T12:32:06;4.00;;;3.80;;
11537;SDS011;50159;49.426;11.182;2023-04-06T12:34:34;5.43;;;4.83;;
11537;SDS011;50159;49.426;11.182;2023-04-06T12:37:01;5.53;;;4.80;;
11537;SDS011;50159;49.426;11.182;2023-04-06T12:39:28;4.43;;;4.13;;
11537;SDS011;50159;49.426;11.182;2023-04-06T12:41:55;3.80;;;3.50;;
11537;SDS011;50159;49.426;11.182;2023-04-06T12:44:23;5.63;;;4.47;;
11537;SDS011;50159;49.426;11.182;2023-04-06T12:46:52;3.07;;;2.87;;
11537;SDS011;50159;49.426;11.182;2023-04-06T12:49:19;5.03;;;4.63;;
11537;SDS011;50159;49.426;11.182;2023-04-06T12:51:46;5.00;;;4.60;;
11537;SDS011;50159;49.426;11.182;2023-04-06T12:54:13;4.60;;;4.27;;
11537;SDS011;50159;49.426;11.182;2023-04-06T12:56:40;3.73;;;3.53;;
11537;SDS011;50159;49.426;11.182;2023-04-06T12:59:07;4.83;;;4.43;;
11537;SDS011;50159;49.426;11.182;2023-04-06T13:01:34;3.27;;;3.10;;
11537;SDS011;50159;49.426;11.182;2023-04-06T13:04:01;3.87;;;3.60;;
11537;SDS011;50159;49.426;11.182;2023-04-06T13:06:28;5.40;;;4.00;;
11537;SDS011;50159;49.426;11.182;2023-04-06T13:08:56;6.10;;;5.60;;
11537;SDS011;50159;49.426;11.182;2023-04-06T13:11:23;4.47;;;4.10;;
11537;SDS011;50159;49.426;11.182;2023-04-06T13:13:53;3.77;;;3.10;;
11537;SDS011;50159;49.426;11.182;2023-04-06T13:16:20;3.77;;;3.47;;
11537;SDS011;50159;49.426;11.182;2023-04-06T13:18:47;3.67;;;3.37;;
11537;SDS011;50159;49.426;11.182;2023-04-06T13:21:14;3.47;;;3.20;;
11537;SDS011;50159;49.426;11.182;2023-04-06T13:23:42;4.50;;;3.00;;
11537;SDS011;50159;49.426;11.182;2023-04-06T13:26:10;2.97;;;2.70;;
11537;SDS011;50159;49.426;11.182;2023-04-06T13:28:39;3.43;;;3.20;;
11537;SDS011;50159;49.426;11.182;2023-04-06T13:31:06;5.10;;;4.60;;
11537;SDS011;50159;49.426;11.182;2023-04-06T13:33:34;4.47;;;4.03;;
11537;SDS011;50159;49.426;11.182;2023-04-06T13:36:01;3.90;;;3.50;;
11537;SDS011;50159;49.426;11.182;2023-04-06T13:38:29;4.83;;;4.43;;
11537;SDS011;50159;49.426;11.182;2023-04-06T13:40:56;5.70;;;4.47;;
11537;SDS011;50159;49.426;11.182;2023-04-06T13:43:24;4.90;;;4.50;;
11537;SDS011;50159;49.426;11.182;2023-04-06T13:45:56;5.30;;;4.70;;
11537;SDS011;50159;49.426;11.182;2023-04-06T13:48:26;3.60;;;3.33;;
11537;SDS011;50159;49.426;11.182;2023-04-06T13:50:53;3.80;;;3.60;;
11537;SDS011;50159;49.426;11.182;2023-04-06T13:53:20;3.43;;;3.13;;
11537;SDS011;50159;49.426;11.182;2023-04-06T13:55:53;2.97;;;2.73;;
11537;SDS011;50159;49.426;11.182;2023-04-06T13:58:21;4.03;;;3.63;;
11537;SDS011;50159;49.426;11.182;2023-04-06T14:00:48;3.63;;;3.33;;
11537;SDS011;50159;49.426;11.182;2023-04-06T14:03:15;5.03;;;4.70;;
11537;SDS011;50159;49.426;11.182;2023-04-06T14:05:42;5.53;;;4.97;;
11537;SDS011;50159;49.426;11.182;2023-04-06T14:08:10;4.60;;;4.27;;
11537;SDS011;50159;49.426;11.182;2023-04-06T14:10:40;4.33;;;4.03;;
11537;SDS011;50159;49.426;11.182;2023-04-06T14:13:08;4.27;;;4.03;;
11537;SDS011;50159;49.426;11.182;2023-04-06T14:15:35;4.30;;;4.00;;
11537;SDS011;50159;49.426;11.182;2023-04-06T14:18:02;3.90;;;3.70;;
11537;SDS011;50159;49.426;11.182;2023-04-06T14:20:33;3.50;;;3.20;;
11537;SDS011;50159;49.426;11.182;2023-04-06T14:23:00;4.37;;;4.00;;
11537;SDS011;50159;49.426;11.182;2023-04-06T14:25:28;3.47;;;3.17;;
11537;SDS011;50159;49.426;11.182;2023-04-06T14:27:57;2.83;;;2.60;;
11537;SDS011;50159;49.426;11.182;2023-04-06T14:30:24;2.60;;;2.43;;
11537;SDS011;50159;49.426;11.182;2023-04-06T14:32:51;2.77;;;2.23;;
11537;SDS011;50159;49.426;11.182;2023-04-06T14:35:18;2.97;;;2.70;;
11537;SDS011;50159;49.426;11.182;2023-04-06T14:37:44;2.67;;;2.57;;
11537;SDS011;50159;49.426;11.182;2023-04-06T14:40:11;2.77;;;2.60;;
11537;SDS011;50159;49.426;11.182;2023-04-06T14:42:38;2.20;;;2.10;;
11537;SDS011;50159;49.426;11.182;2023-04-06T14:45:05;2.27;;;2.17;;